sensor_id;sensor_type;location;lat;lon;timestamp;pressure;altitude;pressure_sealevel;temperature;humidity
12182;BME280;6154;51.550;12.138;2024-03-02T00:01:07;99483.97;;;11.38;63.61
12182;BME280;6154;51.550;12.138;2024-03-02T00:03:36;99478.44;;;11.41;63.95
12182;BME280;6154;51.550;12.138;2024-03-02T00:06:05;99475.59;;;11.44;63.77
12182;BME280;6154;51.550;12.138;2024-03-02T00:08:33;99482.34;;;11.48;63.68
12182;BME280;6154;51.550;12.138;2024-03-02T00:11:02;99476.31;;;11.46;63.75
12182;BME280;6154;51.550;12.138;2024-03-02T00:13:30;99479.81;;;11.47;63.66
12182;BME280;6154;51.550;12.138;2024-03-02T00:16:02;99475.34;;;11.47;63.65
12182;BME280;6154;51.550;12.138;2024-03-02T00:18:33;99470.88;;;11.48;63.41
12182;BME280;6154;51.550;12.138;2024-03-02T00:21:03;99478.59;;;11.51;63.45
12182;BME280;6154;51.550;12.138;2024-03-02T00:23:31;99476.72;;;11.53;63.20
12182;BME280;6154;51.550;12.138;2024-03-02T00:26:02;99481.03;;;11.54;63.86
12182;BME280;6154;51.550;12.138;2024-03-02T00:28:32;99474.91;;;11.54;64.08
12182;BME280;6154;51.550;12.138;2024-03-02T00:31:05;99474.78;;;11.55;63.91
12182;BME280;6154;51.550;12.138;2024-03-02T00:33:35;99479.12;;;11.56;63.59
12182;BME280;6154;51.550;12.138;2024-03-02T00:36:04;99474.66;;;11.57;63.53
12182;BME280;6154;51.550;12.138;2024-03-02T00:38:33;99469.25;;;11.58;63.69
12182;BME280;6154;51.550;12.138;2024-03-02T00:41:05;99466.47;;;11.60;63.91
12182;BME280;6154;51.550;12.138;2024-03-02T00:43:45;99466.34;;;11.61;63.98
12182;BME280;6154;51.550;12.138;2024-03-02T00:46:18;99460.22;;;11.61;64.57
12182;BME280;6154;51.550;12.138;2024-03-02T00:48:54;99461.91;;;11.62;64.02
12182;BME280;6154;51.550;12.138;2024-03-02T00:51:24;99460.97;;;11.63;64.15
12182;BME280;6154;51.550;12.138;2024-03-02T00:53:54;99454.72;;;11.64;63.94
12182;BME280;6154;51.550;12.138;2024-03-02T00:56:24;99453.75;;;11.65;63.58
12182;BME280;6154;51.550;12.138;2024-03-02T00:58:53;99452.91;;;11.64;63.59
12182;BME280;6154;51.550;12.138;2024-03-02T01:01:23;99451.81;;;11.67;63.87
12182;BME280;6154;51.550;12.138;2024-03-02T01:03:52;99455.75;;;11.61;64.81
12182;BME280;6154;51.550;12.138;2024-03-02T01:06:20;99452.37;;;11.59;64.81
12182;BME280;6154;51.550;12.138;2024-03-02T01:08:50;99448.41;;;11.54;65.42
12182;BME280;6154;51.550;12.138;2024-03-02T01:11:22;99457.53;;;11.49;65.15
12182;BME280;6154;51.550;12.138;2024-03-02T01:13:51;99451.38;;;11.49;65.36
12182;BME280;6154;51.550;12.138;2024-03-02T01:16:20;99452.69;;;11.43;66.29
12182;BME280;6154;51.550;12.138;2024-03-02T01:18:50;99458.00;;;11.43;65.43
12182;BME280;6154;51.550;12.138;2024-03-02T01:21:18;99453.44;;;11.45;64.70
12182;BME280;6154;51.550;12.138;2024-03-02T01:23:46;99447.88;;;11.48;64.55
12182;BME280;6154;51.550;12.138;2024-03-02T01:26:15;99445.13;;;11.50;64.74
12182;BME280;6154;51.550;12.138;2024-03-02T01:28:43;99451.06;;;11.54;64.57
12182;BME280;6154;51.550;12.138;2024-03-02T01:31:11;99453.47;;;11.57;64.31
12182;BME280;6154;51.550;12.138;2024-03-02T01:33:39;99451.53;;;11.59;64.38
12182;BME280;6154;51.550;12.138;2024-03-02T01:36:09;99448.66;;;11.62;64.37
12182;BME280;6154;51.550;12.138;2024-03-02T01:38:37;99449.63;;;11.61;64.98
12182;BME280;6154;51.550;12.138;2024-03-02T01:41:05;99448.78;;;11.60;65.29
12182;BME280;6154;51.550;12.138;2024-03-02T01:43:33;99440.81;;;11.60;64.67
12182;BME280;6154;51.550;12.138;2024-03-02T01:46:06;99442.41;;;11.63;64.68
12182;BME280;6154;51.550;12.138;2024-03-02T01:48:34;99440.50;;;11.65;64.43
12182;BME280;6154;51.550;12.138;2024-03-02T01:51:02;99443.88;;;11.67;64.23
12182;BME280;6154;51.550;12.138;2024-03-02T01:53:32;99438.31;;;11.70;64.32
12182;BME280;6154;51.550;12.138;2024-03-02T01:56:00;99440.25;;;11.68;64.31
12182;BME280;6154;51.550;12.138;2024-03-02T01:58:29;99437.47;;;11.69;64.53
12182;BME280;6154;51.550;12.138;2024-03-02T02:00:57;99439.16;;;11.70;64.10
12182;BME280;6154;51.550;12.138;2024-03-02T02:03:25;99443.50;;;11.71;65.02
12182;BME280;6154;51.550;12.138;2024-03-02T02:05:53;99436.41;;;11.72;65.27
12182;BME280;6154;51.550;12.138;2024-03-02T02:08:21;99435.47;;;11.73;64.30
12182;BME280;6154;51.550;12.138;2024-03-02T02:10:51;99439.81;;;11.74;64.77
12182;BME280;6154;51.550;12.138;2024-03-02T02:13:19;99447.75;;;11.74;65.24
12182;BME280;6154;51.550;12.138;2024-03-02T02:15:47;99448.72;;;11.73;65.45
12182;BME280;6154;51.550;12.138;2024-03-02T02:18:16;99448.09;;;11.69;65.29
12182;BME280;6154;51.550;12.138;2024-03-02T02:20:43;99444.34;;;11.72;65.12
12182;BME280;6154;51.550;12.138;2024-03-02T02:23:13;99438.00;;;11.74;65.33
12182;BME280;6154;51.550;12.138;2024-03-02T02:25:41;99438.59;;;11.78;65.28
12182;BME280;6154;51.550;12.138;2024-03-02T02:28:09;99438.38;;;11.81;64.75
12182;BME280;6154;51.550;12.138;2024-03-02T02:30:37;99438.50;;;11.79;65.09
12182;BME280;6154;51.550;12.138;2024-03-02T02:33:06;99433.19;;;11.79;65.50
12182;BME280;6154;51.550;12.138;2024-03-02T02:35:34;99437.63;;;11.79;65.63
12182;BME280;6154;51.550;12.138;2024-03-02T02:38:03;99436.91;;;11.77;65.76
12182;BME280;6154;51.550;12.138;2024-03-02T02:40:33;99444.66;;;11.80;65.19
12182;BME280;6154;51.550;12.138;2024-03-02T02:43:01;99442.09;;;11.78;65.40
12182;BME280;6154;51.550;12.138;2024-03-02T02:45:29;99454.28;;;11.81;65.31
12182;BME280;6154;51.550;12.138;2024-03-02T02:47:58;99445.56;;;11.79;65.77
12182;BME280;6154;51.550;12.138;2024-03-02T02:50:28;99457.16;;;11.78;66.33
12182;BME280;6154;51.550;12.138;2024-03-02T02:52:57;99449.09;;;11.79;66.16
12182;BME280;6154;51.550;12.138;2024-03-02T02:55:26;99449.09;;;11.79;66.30
12182;BME280;6154;51.550;12.138;2024-03-02T02:57:55;99454.50;;;11.78;66.05
12182;BME280;6154;51.550;12.138;2024-03-02T03:00:23;99453.31;;;11.82;66.07
12182;BME280;6154;51.550;12.138;2024-03-02T03:02:52;99444.19;;;11.86;66.00
12182;BME280;6154;51.550;12.138;2024-03-02T03:05:20;99447.56;;;11.88;65.48
12182;BME280;6154;51.550;12.138;2024-03-02T03:07:48;99445.63;;;11.90;65.61
12182;BME280;6154;51.550;12.138;2024-03-02T03:10:17;99449.00;;;11.92;65.69
12182;BME280;6154;51.550;12.138;2024-03-02T03:12:49;99454.09;;;11.95;65.95
12182;BME280;6154;51.550;12.138;2024-03-02T03:15:18;99453.84;;;11.98;65.71
12182;BME280;6154;51.550;12.138;2024-03-02T03:17:46;99453.84;;;11.98;66.00
12182;BME280;6154;51.550;12.138;2024-03-02T03:20:15;99451.94;;;12.00;66.15
12182;BME280;6154;51.550;12.138;2024-03-02T03:22:43;99450.00;;;12.02;65.95
12182;BME280;6154;51.550;12.138;2024-03-02T03:25:11;99450.00;;;12.02;65.96
12182;BME280;6154;51.550;12.138;2024-03-02T03:27:39;99457.94;;;12.02;65.79
12182;BME280;6154;51.550;12.138;2024-03-02T03:30:10;99451.72;;;12.03;65.76
12182;BME280;6154;51.550;12.138;2024-03-02T03:32:39;99451.72;;;12.03;65.72
12182;BME280;6154;51.550;12.138;2024-03-02T03:35:07;99453.53;;;12.03;65.50
12182;BME280;6154;51.550;12.138;2024-03-02T03:37:36;99461.47;;;12.03;65.48
12182;BME280;6154;51.550;12.138;2024-03-02T03:40:05;99450.00;;;12.02;65.44
12182;BME280;6154;51.550;12.138;2024-03-02T03:42:37;99459.53;;;12.05;65.39
12182;BME280;6154;51.550;12.138;2024-03-02T03:45:07;99452.75;;;12.01;65.84
12182;BME280;6154;51.550;12.138;2024-03-02T03:47:36;99451.19;;;11.98;66.11
12182;BME280;6154;51.550;12.138;2024-03-02T03:50:06;99462.66;;;11.99;66.11
12182;BME280;6154;51.550;12.138;2024-03-02T03:52:35;99453.84;;;11.98;65.70
12182;BME280;6154;51.550;12.138;2024-03-02T03:55:03;99453.72;;;12.00;65.65
12182;BME280;6154;51.550;12.138;2024-03-02T03:57:32;99451.94;;;12.00;65.26
12182;BME280;6154;51.550;12.138;2024-03-02T04:00:01;99459.75;;;12.02;65.31
12182;BME280;6154;51.550;12.138;2024-03-02T04:02:37;99457.22;;;12.00;65.38
12182;BME280;6154;51.550;12.138;2024-03-02T04:05:07;99462.78;;;11.97;65.49
12182;BME280;6154;51.550;12.138;2024-03-02T04:07:38;99461.94;;;11.97;65.08
12182;BME280;6154;51.550;12.138;2024-03-02T04:10:08;99463.03;;;11.94;65.48
12182;BME280;6154;51.550;12.138;2024-03-02T04:12:37;99474.34;;;11.96;65.29
12182;BME280;6154;51.550;12.138;2024-03-02T04:15:05;99467.56;;;11.92;65.30
12182;BME280;6154;51.550;12.138;2024-03-02T04:17:34;99463.88;;;11.95;64.85
12182;BME280;6154;51.550;12.138;2024-03-02T04:20:03;99468.31;;;11.94;65.27
12182;BME280;6154;51.550;12.138;2024-03-02T04:22:34;99473.50;;;11.96;64.73
12182;BME280;6154;51.550;12.138;2024-03-02T04:25:03;99470.97;;;11.94;64.84
12182;BME280;6154;51.550;12.138;2024-03-02T04:27:32;99480.81;;;11.92;64.85
12182;BME280;6154;51.550;12.138;2024-03-02T04:30:01;99484.69;;;11.88;64.98
12182;BME280;6154;51.550;12.138;2024-03-02T04:32:31;99487.06;;;11.80;65.33
12182;BME280;6154;51.550;12.138;2024-03-02T04:34:59;99477.63;;;11.76;65.84
12182;BME280;6154;51.550;12.138;2024-03-02T04:37:27;99476.91;;;11.74;65.90
12182;BME280;6154;51.550;12.138;2024-03-02T04:39:57;99479.88;;;11.69;65.64
12182;BME280;6154;51.550;12.138;2024-03-02T04:42:25;99481.69;;;11.69;65.71
12182;BME280;6154;51.550;12.138;2024-03-02T04:44:53;99480.00;;;11.68;65.22
12182;BME280;6154;51.550;12.138;2024-03-02T04:47:21;99485.19;;;11.69;65.05
12182;BME280;6154;51.550;12.138;2024-03-02T04:49:49;99495.78;;;11.69;65.35
12182;BME280;6154;51.550;12.138;2024-03-02T04:52:17;99487.84;;;11.69;65.20
12182;BME280;6154;51.550;12.138;2024-03-02T04:54:45;99494.94;;;11.69;65.33
12182;BME280;6154;51.550;12.138;2024-03-02T04:57:29;99495.19;;;11.66;65.49
12182;BME280;6154;51.550;12.138;2024-03-02T04:59:57;99495.31;;;11.64;65.36
12182;BME280;6154;51.550;12.138;2024-03-02T05:02:26;99493.69;;;11.62;65.77
12182;BME280;6154;51.550;12.138;2024-03-02T05:04:54;99496.63;;;11.70;65.53
12182;BME280;6154;51.550;12.138;2024-03-02T05:07:22;99509.28;;;11.66;65.47
12182;BME280;6154;51.550;12.138;2024-03-02T05:09:50;99507.78;;;11.62;66.01
12182;BME280;6154;51.550;12.138;2024-03-02T05:12:19;99502.50;;;11.62;65.52
12182;BME280;6154;51.550;12.138;2024-03-02T05:15:25;99496.25;;;11.63;65.33
12182;BME280;6154;51.550;12.138;2024-03-02T05:17:53;99504.41;;;11.60;65.51
12182;BME280;6154;51.550;12.138;2024-03-02T05:20:21;99502.72;;;11.59;65.50
12182;BME280;6154;51.550;12.138;2024-03-02T05:22:49;99502.62;;;11.61;65.43
12182;BME280;6154;51.550;12.138;2024-03-02T05:25:17;99498.41;;;11.58;65.59
12182;BME280;6154;51.550;12.138;2024-03-02T05:27:45;99493.94;;;11.59;65.39
12182;BME280;6154;51.550;12.138;2024-03-02T05:30:14;99490.31;;;11.60;65.55
12182;BME280;6154;51.550;12.138;2024-03-02T05:32:47;99494.66;;;11.61;65.37
12182;BME280;6154;51.550;12.138;2024-03-02T05:35:15;99492.25;;;11.58;65.57
12182;BME280;6154;51.550;12.138;2024-03-02T05:37:43;99493.66;;;11.50;65.33
12182;BME280;6154;51.550;12.138;2024-03-02T05:40:11;99494.50;;;11.51;65.46
12182;BME280;6154;51.550;12.138;2024-03-02T05:42:40;99501.16;;;11.57;65.31
12182;BME280;6154;51.550;12.138;2024-03-02T05:45:09;99506.47;;;11.57;65.49
12182;BME280;6154;51.550;12.138;2024-03-02T05:47:37;99507.66;;;11.52;65.79
12182;BME280;6154;51.550;12.138;2024-03-02T05:50:07;99512.44;;;11.47;66.12
12182;BME280;6154;51.550;12.138;2024-03-02T05:52:35;99519.91;;;11.42;66.02
12182;BME280;6154;51.550;12.138;2024-03-02T05:55:04;99522.63;;;11.41;65.92
12182;BME280;6154;51.550;12.138;2024-03-02T05:57:32;99526.34;;;11.38;65.99
12182;BME280;6154;51.550;12.138;2024-03-02T06:00:15;99529.22;;;11.35;65.93
12182;BME280;6154;51.550;12.138;2024-03-02T06:02:44;99516.00;;;11.35;65.32
12182;BME280;6154;51.550;12.138;2024-03-02T06:05:14;99524.91;;;11.34;65.54
12182;BME280;6154;51.550;12.138;2024-03-02T06:07:43;99531.34;;;11.30;65.66
12182;BME280;6154;51.550;12.138;2024-03-02T06:10:11;99538.56;;;11.28;65.38
12182;BME280;6154;51.550;12.138;2024-03-02T06:12:40;99532.44;;;11.28;65.59
12182;BME280;6154;51.550;12.138;2024-03-02T06:15:09;99536.87;;;11.27;65.58
12182;BME280;6154;51.550;12.138;2024-03-02T06:17:39;99542.91;;;11.29;65.43
12182;BME280;6154;51.550;12.138;2024-03-02T06:20:11;99541.44;;;11.25;65.43
12182;BME280;6154;51.550;12.138;2024-03-02T06:22:42;99547.59;;;11.26;65.78
12182;BME280;6154;51.550;12.138;2024-03-02T06:25:15;99548.03;;;11.19;65.96
12182;BME280;6154;51.550;12.138;2024-03-02T06:27:44;99550.13;;;11.27;66.05
12182;BME280;6154;51.550;12.138;2024-03-02T06:30:15;99547.25;;;11.30;nan
12182;BME280;6154;51.550;12.138;2024-03-02T06:32:45;99553.19;;;11.34;65.80
12182;BME280;6154;51.550;12.138;2024-03-02T06:35:13;99552.34;;;11.33;65.74
12182;BME280;6154;51.550;12.138;2024-03-02T06:37:43;99553.28;;;11.32;66.01
12182;BME280;6154;51.550;12.138;2024-03-02T06:40:11;99555.00;;;11.33;66.15
12182;BME280;6154;51.550;12.138;2024-03-02T06:42:39;99563.56;;;11.37;66.28
12182;BME280;6154;51.550;12.138;2024-03-02T06:45:07;99557.19;;;11.39;66.42
12182;BME280;6154;51.550;12.138;2024-03-02T06:47:36;99558.66;;;11.43;66.22
12182;BME280;6154;51.550;12.138;2024-03-02T06:50:04;99562.66;;;11.49;66.65
12182;BME280;6154;51.550;12.138;2024-03-02T06:52:33;99562.78;;;11.47;67.06
12182;BME280;6154;51.550;12.138;2024-03-02T06:55:04;99566.78;;;11.53;66.93
12182;BME280;6154;51.550;12.138;2024-03-02T06:57:36;99555.00;;;11.57;67.09
12182;BME280;6154;51.550;12.138;2024-03-02T07:00:14;99556.97;;;11.66;67.11
12182;BME280;6154;51.550;12.138;2024-03-02T07:02:46;99556.19;;;11.77;66.64
12182;BME280;6154;51.550;12.138;2024-03-02T07:05:40;99560.13;;;11.84;67.00
12182;BME280;6154;51.550;12.138;2024-03-02T07:08:27;99562.28;;;11.90;66.71
12182;BME280;6154;51.550;12.138;2024-03-02T07:10:58;99562.94;;;11.94;66.56
12182;BME280;6154;51.550;12.138;2024-03-02T07:13:26;99561.84;;;11.96;66.85
12182;BME280;6154;51.550;12.138;2024-03-02T07:15:54;99560.63;;;12.00;66.44
12182;BME280;6154;51.550;12.138;2024-03-02T07:18:49;99556.56;;;12.07;66.31
12182;BME280;6154;51.550;12.138;2024-03-02T07:21:19;99553.22;;;12.17;66.58
12182;BME280;6154;51.550;12.138;2024-03-02T07:23:49;99550.84;;;12.25;66.55
12182;BME280;6154;51.550;12.138;2024-03-02T07:26:19;99553.28;;;12.39;66.21
12182;BME280;6154;51.550;12.138;2024-03-02T07:28:50;99561.25;;;12.50;66.16
12182;BME280;6154;51.550;12.138;2024-03-02T07:31:19;99565.03;;;12.59;65.97
12182;BME280;6154;51.550;12.138;2024-03-02T07:33:47;99565.03;;;12.70;65.75
12182;BME280;6154;51.550;12.138;2024-03-02T07:36:15;99562.50;;;12.80;65.47
12182;BME280;6154;51.550;12.138;2024-03-02T07:38:44;99561.19;;;12.85;65.21
12182;BME280;6154;51.550;12.138;2024-03-02T07:41:12;99565.16;;;12.91;65.06
12182;BME280;6154;51.550;12.138;2024-03-02T07:43:42;99560.34;;;12.96;65.04
12182;BME280;6154;51.550;12.138;2024-03-02T07:46:10;99574.22;;;13.00;65.28
12182;BME280;6154;51.550;12.138;2024-03-02T07:48:38;99561.44;;;13.05;64.84
12182;BME280;6154;51.550;12.138;2024-03-02T07:51:07;99572.66;;;13.08;65.15
12182;BME280;6154;51.550;12.138;2024-03-02T07:53:35;99568.28;;;13.18;65.15
12182;BME280;6154;51.550;12.138;2024-03-02T07:56:04;99571.22;;;13.27;64.91
12182;BME280;6154;51.550;12.138;2024-03-02T07:58:33;99573.28;;;13.34;64.73
12182;BME280;6154;51.550;12.138;2024-03-02T08:01:29;99573.97;;;13.36;65.21
12182;BME280;6154;51.550;12.138;2024-03-02T08:03:58;99578.81;;;13.31;65.51
12182;BME280;6154;51.550;12.138;2024-03-02T08:06:27;99582.81;;;13.37;65.34
12182;BME280;6154;51.550;12.138;2024-03-02T08:08:55;99586.66;;;13.44;65.30
12182;BME280;6154;51.550;12.138;2024-03-02T08:11:24;99584.00;;;13.44;65.86
12182;BME280;6154;51.550;12.138;2024-03-02T08:13:54;99582.66;;;13.49;65.59
12182;BME280;6154;51.550;12.138;2024-03-02T08:16:22;99586.78;;;13.54;65.71
12182;BME280;6154;51.550;12.138;2024-03-02T08:18:53;99589.16;;;13.57;65.25
12182;BME280;6154;51.550;12.138;2024-03-02T08:21:24;99587.09;;;13.60;65.19
12182;BME280;6154;51.550;12.138;2024-03-02T08:23:52;99587.31;;;13.68;65.43
12182;BME280;6154;51.550;12.138;2024-03-02T08:26:22;99586.84;;;13.74;65.44
12182;BME280;6154;51.550;12.138;2024-03-02T08:28:51;99586.84;;;13.74;65.50
12182;BME280;6154;51.550;12.138;2024-03-02T08:31:19;99586.31;;;13.80;65.47
12182;BME280;6154;51.550;12.138;2024-03-02T08:33:48;99584.44;;;13.92;64.94
12182;BME280;6154;51.550;12.138;2024-03-02T08:36:19;99585.28;;;14.04;64.86
12182;BME280;6154;51.550;12.138;2024-03-02T08:38:57;99590.28;;;14.18;65.15
12182;BME280;6154;51.550;12.138;2024-03-02T08:41:25;99591.97;;;14.19;64.85
12182;BME280;6154;51.550;12.138;2024-03-02T08:43:53;99594.63;;;14.19;65.40
12182;BME280;6154;51.550;12.138;2024-03-02T08:46:22;99604.00;;;14.14;65.16
12182;BME280;6154;51.550;12.138;2024-03-02T08:48:52;99599.59;;;14.24;65.47
12182;BME280;6154;51.550;12.138;2024-03-02T08:51:28;99600.50;;;14.34;65.27
12182;BME280;6154;51.550;12.138;2024-03-02T08:53:58;99603.00;;;14.47;65.51
12182;BME280;6154;51.550;12.138;2024-03-02T08:56:33;99599.28;;;14.59;65.44
12182;BME280;6154;51.550;12.138;2024-03-02T08:59:01;99610.28;;;14.65;65.27
12182;BME280;6154;51.550;12.138;2024-03-02T09:01:30;99607.22;;;14.70;64.85
12182;BME280;6154;51.550;12.138;2024-03-02T09:04:06;99614.97;;;14.73;64.56
12182;BME280;6154;51.550;12.138;2024-03-02T09:06:40;99616.69;;;14.84;64.67
12182;BME280;6154;51.550;12.138;2024-03-02T09:09:08;99612.66;;;14.89;64.13
12182;BME280;6154;51.550;12.138;2024-03-02T09:11:36;99613.97;;;14.95;64.33
12182;BME280;6154;51.550;12.138;2024-03-02T09:14:06;99614.66;;;14.97;64.38
12182;BME280;6154;51.550;12.138;2024-03-02T09:16:34;99614.97;;;15.04;64.16
12182;BME280;6154;51.550;12.138;2024-03-02T09:19:02;99618.66;;;15.12;64.54
12182;BME280;6154;51.550;12.138;2024-03-02T09:21:31;99611.25;;;15.16;64.22
12182;BME280;6154;51.550;12.138;2024-03-02T09:24:01;99625.00;;;15.21;64.11
12182;BME280;6154;51.550;12.138;2024-03-02T09:26:31;99619.66;;;15.21;63.97
12182;BME280;6154;51.550;12.138;2024-03-02T09:29:02;99624.06;;;15.32;64.39
12182;BME280;6154;51.550;12.138;2024-03-02T09:31:31;99621.56;;;15.40;63.89
12182;BME280;6154;51.550;12.138;2024-03-02T09:33:59;99628.63;;;15.50;64.01
12182;BME280;6154;51.550;12.138;2024-03-02T09:36:27;99636.75;;;15.49;64.14
12182;BME280;6154;51.550;12.138;2024-03-02T09:38:55;99628.94;;;15.57;63.88
12182;BME280;6154;51.550;12.138;2024-03-02T09:41:25;99632.63;;;15.66;63.41
12182;BME280;6154;51.550;12.138;2024-03-02T09:43:54;99628.41;;;15.73;63.58
12182;BME280;6154;51.550;12.138;2024-03-02T09:46:23;99633.50;;;15.76;63.68
12182;BME280;6154;51.550;12.138;2024-03-02T09:48:51;99644.38;;;15.94;63.48
12182;BME280;6154;51.550;12.138;2024-03-02T09:51:19;99639.72;;;15.96;63.13
12182;BME280;6154;51.550;12.138;2024-03-02T09:53:48;99640.44;;;15.98;62.82
12182;BME280;6154;51.550;12.138;2024-03-02T09:56:20;99645.06;;;16.05;62.86
12182;BME280;6154;51.550;12.138;2024-03-02T09:59:00;99647.88;;;16.04;62.77
12182;BME280;6154;51.550;12.138;2024-03-02T10:01:32;99640.00;;;16.12;62.37
12182;BME280;6154;51.550;12.138;2024-03-02T10:04:05;99645.50;;;16.20;62.56
12182;BME280;6154;51.550;12.138;2024-03-02T10:06:33;99649.31;;;16.27;62.50
12182;BME280;6154;51.550;12.138;2024-03-02T10:09:01;99646.34;;;16.40;62.43
12182;BME280;6154;51.550;12.138;2024-03-02T10:11:31;99653.81;;;16.46;62.38
12182;BME280;6154;51.550;12.138;2024-03-02T10:14:08;99653.50;;;16.49;62.28
12182;BME280;6154;51.550;12.138;2024-03-02T10:16:38;99660.25;;;16.53;61.86
12182;BME280;6154;51.550;12.138;2024-03-02T10:19:17;99651.28;;;16.54;61.81
12182;BME280;6154;51.550;12.138;2024-03-02T10:21:46;99650.28;;;16.55;61.26
12182;BME280;6154;51.550;12.138;2024-03-02T10:24:14;99645.34;;;16.60;61.67
12182;BME280;6154;51.550;12.138;2024-03-02T10:26:43;99644.81;;;16.76;61.89
12182;BME280;6154;51.550;12.138;2024-03-02T10:29:13;99642.41;;;16.73;61.23
12182;BME280;6154;51.550;12.138;2024-03-02T10:31:43;99639.34;;;16.68;61.31
12182;BME280;6154;51.550;12.138;2024-03-02T10:34:13;99639.31;;;16.78;61.36
12182;BME280;6154;51.550;12.138;2024-03-02T10:36:44;99636.47;;;16.89;61.41
12182;BME280;6154;51.550;12.138;2024-03-02T10:39:17;99628.44;;;16.99;61.43
12182;BME280;6154;51.550;12.138;2024-03-02T10:41:46;99630.09;;;17.09;61.42
12182;BME280;6154;51.550;12.138;2024-03-02T10:44:19;99623.28;;;17.24;60.68
12182;BME280;6154;51.550;12.138;2024-03-02T10:46:52;99622.50;;;17.42;61.09
12182;BME280;6154;51.550;12.138;2024-03-02T10:49:22;99623.12;;;17.53;60.30
12182;BME280;6154;51.550;12.138;2024-03-02T10:51:51;99623.06;;;17.63;60.29
12182;BME280;6154;51.550;12.138;2024-03-02T10:54:19;99615.88;;;17.73;60.16
12182;BME280;6154;51.550;12.138;2024-03-02T10:56:53;99621.22;;;17.73;59.71
12182;BME280;6154;51.550;12.138;2024-03-02T10:59:27;99618.41;;;17.75;59.36
12182;BME280;6154;51.550;12.138;2024-03-02T11:01:57;99621.16;;;17.56;58.14
12182;BME280;6154;51.550;12.138;2024-03-02T11:04:31;99614.22;;;17.90;59.60
12182;BME280;6154;51.550;12.138;2024-03-02T11:07:04;99606.97;;;18.18;59.61
12182;BME280;6154;51.550;12.138;2024-03-02T11:09:34;99613.44;;;18.69;59.94
12182;BME280;6154;51.550;12.138;2024-03-02T11:12:06;99606.25;;;18.95;59.02
12182;BME280;6154;51.550;12.138;2024-03-02T11:14:41;99605.72;;;19.18;58.36
12182;BME280;6154;51.550;12.138;2024-03-02T11:17:10;99602.63;;;19.05;56.97
12182;BME280;6154;51.550;12.138;2024-03-02T11:19:40;99603.53;;;19.21;58.14
12182;BME280;6154;51.550;12.138;2024-03-02T11:22:09;99601.56;;;18.98;57.29
12182;BME280;6154;51.550;12.138;2024-03-02T11:24:38;99597.87;;;18.99;57.79
12182;BME280;6154;51.550;12.138;2024-03-02T11:27:07;99598.88;;;18.98;58.40
12182;BME280;6154;51.550;12.138;2024-03-02T11:29:46;99599.41;;;19.01;58.21
12182;BME280;6154;51.550;12.138;2024-03-02T11:32:17;99606.00;;;19.07;56.71
12182;BME280;6154;51.550;12.138;2024-03-02T11:34:46;99598.28;;;19.12;57.44
12182;BME280;6154;51.550;12.138;2024-03-02T11:37:16;99603.69;;;19.20;58.00
12182;BME280;6154;51.550;12.138;2024-03-02T11:39:48;99592.62;;;19.23;57.33
12182;BME280;6154;51.550;12.138;2024-03-02T11:42:16;99594.97;;;19.18;57.52
12182;BME280;6154;51.550;12.138;2024-03-02T11:44:47;99592.13;;;19.19;57.64
12182;BME280;6154;51.550;12.138;2024-03-02T11:47:16;99589.22;;;19.13;57.32
12182;BME280;6154;51.550;12.138;2024-03-02T11:49:46;99588.50;;;19.03;57.30
12182;BME280;6154;51.550;12.138;2024-03-02T11:52:14;99587.09;;;18.90;57.65
12182;BME280;6154;51.550;12.138;2024-03-02T11:54:45;99580.34;;;18.78;57.22
12182;BME280;6154;51.550;12.138;2024-03-02T11:57:17;99580.56;;;18.85;57.75
12182;BME280;6154;51.550;12.138;2024-03-02T11:59:48;99583.38;;;18.83;57.31
12182;BME280;6154;51.550;12.138;2024-03-02T12:02:18;99568.00;;;18.85;57.36
12182;BME280;6154;51.550;12.138;2024-03-02T12:04:48;99571.97;;;19.07;57.45
12182;BME280;6154;51.550;12.138;2024-03-02T12:07:20;99565.19;;;19.29;57.30
12182;BME280;6154;51.550;12.138;2024-03-02T12:09:49;99570.41;;;19.39;56.38
12182;BME280;6154;51.550;12.138;2024-03-02T12:12:27;99572.28;;;19.46;57.06
12182;BME280;6154;51.550;12.138;2024-03-02T12:14:56;99570.44;;;19.47;56.67
12182;BME280;6154;51.550;12.138;2024-03-02T12:17:27;99567.81;;;19.55;56.79
12182;BME280;6154;51.550;12.138;2024-03-02T12:19:55;99575.38;;;19.60;56.80
12182;BME280;6154;51.550;12.138;2024-03-02T12:22:23;99572.22;;;19.72;56.29
12182;BME280;6154;51.550;12.138;2024-03-02T12:24:51;99567.72;;;19.81;55.57
12182;BME280;6154;51.550;12.138;2024-03-02T12:27:20;99561.88;;;19.86;55.95
12182;BME280;6154;51.550;12.138;2024-03-02T12:29:48;99559.69;;;20.05;56.37
12182;BME280;6154;51.550;12.138;2024-03-02T12:32:18;99564.06;;;20.31;56.65
12182;BME280;6154;51.550;12.138;2024-03-02T12:34:46;99567.09;;;20.36;56.05
12182;BME280;6154;51.550;12.138;2024-03-02T12:37:15;99561.72;;;20.36;55.36
12182;BME280;6154;51.550;12.138;2024-03-02T12:39:44;99562.41;;;20.46;56.07
12182;BME280;6154;51.550;12.138;2024-03-02T12:42:13;99559.34;;;20.41;54.70
12182;BME280;6154;51.550;12.138;2024-03-02T12:44:41;99556.69;;;20.49;54.98
12182;BME280;6154;51.550;12.138;2024-03-02T12:47:09;99549.94;;;20.70;55.42
12182;BME280;6154;51.550;12.138;2024-03-02T12:49:41;99552.28;;;20.81;55.19
12182;BME280;6154;51.550;12.138;2024-03-02T12:52:11;99556.63;;;20.90;54.53
12182;BME280;6154;51.550;12.138;2024-03-02T12:54:40;99551.25;;;20.90;53.90
12182;BME280;6154;51.550;12.138;2024-03-02T12:57:08;99555.78;;;20.89;54.31
12182;BME280;6154;51.550;12.138;2024-03-02T12:59:36;99556.12;;;20.94;53.86
12182;BME280;6154;51.550;12.138;2024-03-02T13:02:06;99546.50;;;21.00;53.93
12182;BME280;6154;51.550;12.138;2024-03-02T13:04:37;99541.78;;;21.02;54.52
12182;BME280;6154;51.550;12.138;2024-03-02T13:07:07;99538.22;;;21.10;54.16
12182;BME280;6154;51.550;12.138;2024-03-02T13:09:35;99536.34;;;21.27;54.55
12182;BME280;6154;51.550;12.138;2024-03-02T13:12:04;99530.97;;;21.18;53.37
12182;BME280;6154;51.550;12.138;2024-03-02T13:14:32;99536.81;;;21.30;54.11